Station info - map view · info · telemetry · weather · raw · status · beacons · messages · bulletins · browse · moving · my account
Callsign, ship name or locator: Clear       
It is possible to search using wildcards (*?) after a prefix. Example: OH*
APRS station LB2MG-9 - show graphs
Map loading...
Comment: On the road!
Mic-E message: Off duty
Location: 60°11.60' N 12°00.57' E - locator JP60AE16DJ - show map - static map
0.4 miles Northeast bearing 64° from Kongsvinger, Kongsvinger, Hedmark county, Norway [?]
3.8 miles East bearing 80° from Spetalen, Kongsvinger, Hedmark county, Norway
47.7 miles Northeast bearing 65° from Oslo, Oslo, Oslo County, Norway
69.7 miles Northeast bearing 63° from Drammen, Drammen, Buskerud county, Norway
Last position: 2017-12-11 09:46:13 EST (40m5s ago)
2017-12-11 15:46:13 CET local time at Kongsvinger, Norway [?]
Altitude: 535 ft
Course: 315°
Device: Kenwood: TM-D710 (rig)
Last path: LB2MG-9>VPQQ60 via WIDE1-1,WIDE2-1,qAR,LB8CC-10 (good)
Positions stored: 61044
Packet rate: 33 seconds between packets on average during 1455 seconds.
Stations near current position of LB2MG-9 - show more
callsign distance last heard - EST      callsign distance last heard - EST
LB8CC-100.4 miles 55°2017-12-11 10:02:32 LD2KS1.5 miles 204°2017-12-11 10:19:05
LA9MAA-73.0 miles 165°2017-12-05 06:34:18 LA7RRA-94.8 miles 15°2017-12-11 10:25:22
LD2KR-B10.1 miles 26°2017-12-11 10:10:37 LD2KR B10.1 miles 26°2017-12-11 10:10:27
CW302411.8 miles 286°2017-12-11 10:20:05 LA1HSA-912.0 miles 288°2017-12-11 02:40:32
LA7MOA-212.5 miles 264°2017-12-11 10:21:06 LA7MOA-912.6 miles 264°2017-12-11 07:38:15
LA3VEA-916.5 miles 271°2017-12-11 10:25:30 LB2DG-219.8 miles 357°2017-12-11 09:56:59
LA1HSA-727.3 miles 43°2017-11-25 08:58:48
Stations which heard LB2MG-9 directly on radio –
callsign pkts first heard - EST last heard longest (tx => rx) longest at - EST
SK4UW 1 2017-12-04 09:23:26 2017-12-04 09:23:26 JP50VF > JO69CT 32.0 miles 153° 2017-12-04 09:23:26
LD2KS 142 2017-12-01 00:41:18 2017-12-11 09:42:36 JP50SL > JP50XE 27.1 miles 142° 2017-12-01 10:16:20
LD3HV 1 2017-12-01 10:58:09 2017-12-01 10:58:09 JP50XF > JO59CN 76.2 miles 234° 2017-12-01 10:58:09
LD2RK 69 2017-12-01 00:51:07 2017-12-11 09:37:58 JP50MT > JP50PF 40.3 miles 172° 2017-12-01 05:42:44
LB8CC-10 158 2017-12-01 00:34:04 2017-12-11 09:46:13 JP50WE > JP60AE 4.5 miles 100° 2017-12-01 10:54:54
LA7MOA-2 69 2017-12-01 00:41:41 2017-12-11 09:34:05 JP50RK > JP50TE 19.8 miles 165° 2017-12-01 10:19:40
LA1HSA-2 1 2017-12-04 09:18:53 2017-12-04 09:18:53 JP50UG > JP50MA 28.1 miles 234° 2017-12-04 09:18:53
LA9GTA-1 6 2017-12-01 05:12:29 2017-12-01 09:53:12 JP50NR > JP50MI 26.2 miles 187° 2017-12-01 05:29:13
LD2HA 74 2017-12-01 04:52:03 2017-12-01 10:42:22 JP50TG > JP50OW 49.5 miles 341° 2017-12-01 10:42:22
LD2GR 11 2017-12-01 05:09:13 2017-12-01 10:00:52 JP50RP > JP50IQ 25.7 miles 280° 2017-12-01 10:00:52
LD3TO 3 2017-12-01 09:36:25 2017-12-01 09:41:11 JP50OR > JP40XJ 46.0 miles 242° 2017-12-01 09:41:11
LB2DG-2 1 2017-12-01 04:41:22 2017-12-01 04:41:22 JP50SI > JP50XL 16.1 miles 61° 2017-12-01 04:41:22
LA1PKA-10 1 2017-12-01 05:14:26 2017-12-01 05:14:26 JP50QQ > JP51FA 37.9 miles 308° 2017-12-01 05:14:26
LB5JE-1 21 2017-12-01 05:05:16 2017-12-01 09:59:48 JP50RO > JP50MT 21.7 miles 316° 2017-12-01 05:05:16
LA4LSA-2 10 2017-12-01 04:39:49 2017-12-01 09:57:48 JP50TI > JP50KT 39.3 miles 322° 2017-12-01 04:39:49
LD2GS 2 2017-12-01 05:32:09 2017-12-01 05:33:58 JP50NS > JP40QU 58.5 miles 276° 2017-12-01 05:32:09
LD2GU 4 2017-12-01 05:13:32 2017-12-01 09:56:11 JP50QP > JP50LN 16.5 miles 247° 2017-12-01 09:56:11
LD2LK 17 2017-12-01 05:11:17 2017-12-01 10:02:52 JP50RO > JP51CA 50.7 miles 303° 2017-12-01 10:02:52
LD2GN 15 2017-12-01 05:12:19 2017-12-01 10:04:16 JP50RO > JP50QX 27.6 miles 351° 2017-12-01 10:04:16

Only position packets which were originated by the station are shown here. The range statistics show some extra long hops, because some digipeaters do not correctly add themselves to the digipeater path. Please check the raw packets.
About this site
This page shows real-time information collected from the Automatic Position Reporting System Internet network (APRS-IS). APRS is used by amateur (ham) radio operators to transmit real-time position information, weather data, telemetry and messages over the radio. A vehicle equipped with a GPS receiver, a VHF transmitter or HF transceiver and a small computer device called a tracker transmits it's location, speed and course in a small data packet, which is then received by a nearby iGate receiving site which forwards the packet on the Internet. Systems connected to the Internet can send information on the APRS-IS without a radio transmitter, or collect and display information transmitted anywhere in the world.
FAQ · Blog · Discussion group · Linking to aprs.fi · AIS sites · Service status · Database statistics · Advertising on aprs.fi · Technical details · API · Change log · Planned changes · Credits and thanks · Terms Of Service · iPhone/iPad APRS